sensor_id;sensor_type;location;lat;lon;timestamp;P1;durP1;ratioP1;P2;durP2;ratioP2
4547;SDS011;2286;51.570;7.090;2022-10-31T00:00:04;18.37;;;12.70;;
4547;SDS011;2286;51.570;7.090;2022-10-31T00:02:32;15.63;;;11.80;;
4547;SDS011;2286;51.570;7.090;2022-10-31T00:04:59;16.20;;;12.87;;
4547;SDS011;2286;51.570;7.090;2022-10-31T00:07:28;15.70;;;12.17;;
4547;SDS011;2286;51.570;7.090;2022-10-31T00:09:54;16.73;;;12.20;;
4547;SDS011;2286;51.570;7.090;2022-10-31T00:12:21;19.67;;;12.07;;
4547;SDS011;2286;51.570;7.090;2022-10-31T00:14:48;13.73;;;11.30;;
4547;SDS011;2286;51.570;7.090;2022-10-31T00:17:15;19.67;;;13.97;;
4547;SDS011;2286;51.570;7.090;2022-10-31T00:19:42;14.00;;;12.50;;
4547;SDS011;2286;51.570;7.090;2022-10-31T00:22:08;16.27;;;12.87;;
4547;SDS011;2286;51.570;7.090;2022-10-31T00:24:37;15.67;;;12.67;;
4547;SDS011;2286;51.570;7.090;2022-10-31T00:27:04;16.17;;;12.60;;
4547;SDS011;2286;51.570;7.090;2022-10-31T00:29:31;16.30;;;12.63;;
4547;SDS011;2286;51.570;7.090;2022-10-31T00:31:58;15.60;;;14.00;;
4547;SDS011;2286;51.570;7.090;2022-10-31T00:34:24;20.20;;;12.77;;
4547;SDS011;2286;51.570;7.090;2022-10-31T00:36:51;17.10;;;12.40;;
4547;SDS011;2286;51.570;7.090;2022-10-31T00:39:18;24.27;;;13.73;;
4547;SDS011;2286;51.570;7.090;2022-10-31T00:41:46;20.23;;;14.40;;
4547;SDS011;2286;51.570;7.090;2022-10-31T00:44:13;15.43;;;12.63;;
4547;SDS011;2286;51.570;7.090;2022-10-31T00:46:40;25.37;;;16.83;;
4547;SDS011;2286;51.570;7.090;2022-10-31T00:49:07;18.47;;;15.40;;
4547;SDS011;2286;51.570;7.090;2022-10-31T00:51:33;22.10;;;16.20;;
4547;SDS011;2286;51.570;7.090;2022-10-31T00:54:00;18.37;;;14.47;;
4547;SDS011;2286;51.570;7.090;2022-10-31T00:56:27;18.23;;;14.77;;
4547;SDS011;2286;51.570;7.090;2022-10-31T00:58:55;18.93;;;14.60;;
4547;SDS011;2286;51.570;7.090;2022-10-31T01:01:22;20.70;;;14.50;;
4547;SDS011;2286;51.570;7.090;2022-10-31T01:03:49;16.33;;;14.33;;
4547;SDS011;2286;51.570;7.090;2022-10-31T01:06:16;17.90;;;13.90;;
4547;SDS011;2286;51.570;7.090;2022-10-31T01:08:44;17.07;;;13.57;;
4547;SDS011;2286;51.570;7.090;2022-10-31T01:11:13;14.70;;;13.10;;
4547;SDS011;2286;51.570;7.090;2022-10-31T01:13:42;16.70;;;12.50;;
4547;SDS011;2286;51.570;7.090;2022-10-31T01:16:11;17.63;;;13.27;;
4547;SDS011;2286;51.570;7.090;2022-10-31T01:18:39;15.73;;;13.23;;
4547;SDS011;2286;51.570;7.090;2022-10-31T01:21:08;21.27;;;14.03;;
4547;SDS011;2286;51.570;7.090;2022-10-31T01:23:36;17.47;;;13.57;;
4547;SDS011;2286;51.570;7.090;2022-10-31T01:26:04;15.30;;;13.70;;
4547;SDS011;2286;51.570;7.090;2022-10-31T01:28:33;15.23;;;13.50;;
4547;SDS011;2286;51.570;7.090;2022-10-31T01:31:01;15.97;;;12.83;;
4547;SDS011;2286;51.570;7.090;2022-10-31T01:33:30;13.10;;;11.87;;
4547;SDS011;2286;51.570;7.090;2022-10-31T01:35:57;18.30;;;14.30;;
4547;SDS011;2286;51.570;7.090;2022-10-31T01:38:24;19.10;;;13.30;;
4547;SDS011;2286;51.570;7.090;2022-10-31T01:40:51;17.40;;;13.10;;
4547;SDS011;2286;51.570;7.090;2022-10-31T01:43:18;18.10;;;13.30;;
4547;SDS011;2286;51.570;7.090;2022-10-31T01:45:46;17.07;;;13.53;;
4547;SDS011;2286;51.570;7.090;2022-10-31T01:48:18;17.13;;;13.67;;
4547;SDS011;2286;51.570;7.090;2022-10-31T01:50:51;16.73;;;13.33;;
4547;SDS011;2286;51.570;7.090;2022-10-31T01:53:20;17.27;;;13.20;;
4547;SDS011;2286;51.570;7.090;2022-10-31T01:55:48;19.73;;;13.20;;
4547;SDS011;2286;51.570;7.090;2022-10-31T01:58:16;17.97;;;13.43;;
4547;SDS011;2286;51.570;7.090;2022-10-31T02:00:48;18.63;;;12.17;;
4547;SDS011;2286;51.570;7.090;2022-10-31T02:03:18;15.30;;;13.10;;
4547;SDS011;2286;51.570;7.090;2022-10-31T02:05:46;14.47;;;12.03;;
4547;SDS011;2286;51.570;7.090;2022-10-31T02:08:16;14.80;;;12.63;;
4547;SDS011;2286;51.570;7.090;2022-10-31T02:10:46;14.00;;;12.20;;
4547;SDS011;2286;51.570;7.090;2022-10-31T02:13:13;21.20;;;12.67;;
4547;SDS011;2286;51.570;7.090;2022-10-31T02:15:40;19.60;;;13.40;;
4547;SDS011;2286;51.570;7.090;2022-10-31T02:18:08;21.20;;;13.87;;
4547;SDS011;2286;51.570;7.090;2022-10-31T02:20:38;20.00;;;15.00;;
4547;SDS011;2286;51.570;7.090;2022-10-31T02:23:28;15.67;;;14.00;;
4547;SDS011;2286;51.570;7.090;2022-10-31T02:26:17;20.53;;;15.00;;
4547;SDS011;2286;51.570;7.090;2022-10-31T02:29:06;34.47;;;20.43;;
4547;SDS011;2286;51.570;7.090;2022-10-31T02:31:58;28.23;;;19.20;;
4547;SDS011;2286;51.570;7.090;2022-10-31T02:34:34;23.10;;;15.67;;
4547;SDS011;2286;51.570;7.090;2022-10-31T02:37:08;19.67;;;14.33;;
4547;SDS011;2286;51.570;7.090;2022-10-31T02:39:40;15.93;;;14.23;;
4547;SDS011;2286;51.570;7.090;2022-10-31T02:42:14;16.30;;;14.60;;
4547;SDS011;2286;51.570;7.090;2022-10-31T02:44:48;21.40;;;14.97;;
4547;SDS011;2286;51.570;7.090;2022-10-31T02:47:23;17.87;;;13.50;;
4547;SDS011;2286;51.570;7.090;2022-10-31T02:49:53;16.43;;;13.00;;
4547;SDS011;2286;51.570;7.090;2022-10-31T02:52:25;17.97;;;13.67;;
4547;SDS011;2286;51.570;7.090;2022-10-31T02:54:53;15.60;;;12.30;;
4547;SDS011;2286;51.570;7.090;2022-10-31T02:57:22;21.30;;;14.50;;
4547;SDS011;2286;51.570;7.090;2022-10-31T02:59:52;20.87;;;15.00;;
4547;SDS011;2286;51.570;7.090;2022-10-31T03:02:29;14.80;;;13.20;;
4547;SDS011;2286;51.570;7.090;2022-10-31T03:05:18;22.73;;;15.33;;
4547;SDS011;2286;51.570;7.090;2022-10-31T03:07:56;16.90;;;14.93;;
4547;SDS011;2286;51.570;7.090;2022-10-31T03:10:31;16.83;;;14.60;;
4547;SDS011;2286;51.570;7.090;2022-10-31T03:13:05;17.03;;;14.53;;
4547;SDS011;2286;51.570;7.090;2022-10-31T03:15:37;20.03;;;15.90;;
4547;SDS011;2286;51.570;7.090;2022-10-31T03:18:10;20.73;;;16.43;;
4547;SDS011;2286;51.570;7.090;2022-10-31T03:20:41;19.67;;;15.97;;
4547;SDS011;2286;51.570;7.090;2022-10-31T03:23:12;20.97;;;15.50;;
4547;SDS011;2286;51.570;7.090;2022-10-31T03:25:41;21.70;;;16.43;;
4547;SDS011;2286;51.570;7.090;2022-10-31T03:28:10;19.70;;;14.70;;
4547;SDS011;2286;51.570;7.090;2022-10-31T03:30:39;22.53;;;17.67;;
4547;SDS011;2286;51.570;7.090;2022-10-31T03:33:14;20.40;;;17.53;;
4547;SDS011;2286;51.570;7.090;2022-10-31T03:35:45;22.67;;;16.30;;
4547;SDS011;2286;51.570;7.090;2022-10-31T03:38:14;19.80;;;15.83;;
4547;SDS011;2286;51.570;7.090;2022-10-31T03:40:42;20.20;;;16.00;;
4547;SDS011;2286;51.570;7.090;2022-10-31T03:43:12;24.47;;;17.40;;
4547;SDS011;2286;51.570;7.090;2022-10-31T03:45:43;22.47;;;15.33;;
4547;SDS011;2286;51.570;7.090;2022-10-31T03:48:13;18.50;;;16.20;;
4547;SDS011;2286;51.570;7.090;2022-10-31T03:50:45;21.10;;;16.00;;
4547;SDS011;2286;51.570;7.090;2022-10-31T03:53:19;18.60;;;15.17;;
4547;SDS011;2286;51.570;7.090;2022-10-31T03:55:52;24.47;;;15.43;;
4547;SDS011;2286;51.570;7.090;2022-10-31T03:58:24;18.47;;;14.73;;
4547;SDS011;2286;51.570;7.090;2022-10-31T04:00:57;24.03;;;16.20;;
4547;SDS011;2286;51.570;7.090;2022-10-31T04:03:28;21.37;;;15.10;;
4547;SDS011;2286;51.570;7.090;2022-10-31T04:05:59;20.73;;;15.63;;
4547;SDS011;2286;51.570;7.090;2022-10-31T04:08:31;18.73;;;15.37;;
4547;SDS011;2286;51.570;7.090;2022-10-31T04:11:00;19.60;;;15.37;;
4547;SDS011;2286;51.570;7.090;2022-10-31T04:13:29;20.30;;;15.73;;
4547;SDS011;2286;51.570;7.090;2022-10-31T04:15:59;19.63;;;15.67;;
4547;SDS011;2286;51.570;7.090;2022-10-31T04:18:28;20.40;;;16.73;;
4547;SDS011;2286;51.570;7.090;2022-10-31T04:21:01;19.60;;;15.13;;
4547;SDS011;2286;51.570;7.090;2022-10-31T04:23:29;25.07;;;17.40;;
4547;SDS011;2286;51.570;7.090;2022-10-31T04:25:57;21.93;;;16.27;;
4547;SDS011;2286;51.570;7.090;2022-10-31T04:28:24;19.13;;;15.43;;
4547;SDS011;2286;51.570;7.090;2022-10-31T04:30:51;23.47;;;16.30;;
4547;SDS011;2286;51.570;7.090;2022-10-31T04:33:18;19.00;;;15.80;;
4547;SDS011;2286;51.570;7.090;2022-10-31T04:35:47;19.43;;;15.60;;
4547;SDS011;2286;51.570;7.090;2022-10-31T04:38:14;20.43;;;15.37;;
4547;SDS011;2286;51.570;7.090;2022-10-31T04:40:41;18.87;;;16.97;;
4547;SDS011;2286;51.570;7.090;2022-10-31T04:43:07;20.10;;;16.93;;
4547;SDS011;2286;51.570;7.090;2022-10-31T04:45:34;21.33;;;17.00;;
4547;SDS011;2286;51.570;7.090;2022-10-31T04:48:01;22.43;;;16.87;;
4547;SDS011;2286;51.570;7.090;2022-10-31T04:50:28;17.03;;;15.23;;
4547;SDS011;2286;51.570;7.090;2022-10-31T04:52:56;20.17;;;16.90;;
4547;SDS011;2286;51.570;7.090;2022-10-31T04:55:23;17.30;;;15.43;;
4547;SDS011;2286;51.570;7.090;2022-10-31T04:57:50;19.50;;;16.60;;
4547;SDS011;2286;51.570;7.090;2022-10-31T05:00:17;21.23;;;17.10;;
4547;SDS011;2286;51.570;7.090;2022-10-31T05:02:45;23.33;;;16.20;;
4547;SDS011;2286;51.570;7.090;2022-10-31T05:05:13;21.20;;;15.80;;
4547;SDS011;2286;51.570;7.090;2022-10-31T05:07:41;20.80;;;18.70;;
4547;SDS011;2286;51.570;7.090;2022-10-31T05:10:10;23.50;;;17.97;;
4547;SDS011;2286;51.570;7.090;2022-10-31T05:12:44;20.43;;;16.97;;
4547;SDS011;2286;51.570;7.090;2022-10-31T05:15:12;19.30;;;16.90;;
4547;SDS011;2286;51.570;7.090;2022-10-31T05:17:39;21.03;;;17.67;;
4547;SDS011;2286;51.570;7.090;2022-10-31T05:20:06;17.83;;;15.83;;
4547;SDS011;2286;51.570;7.090;2022-10-31T05:22:33;19.70;;;16.80;;
4547;SDS011;2286;51.570;7.090;2022-10-31T05:25:00;20.57;;;17.77;;
4547;SDS011;2286;51.570;7.090;2022-10-31T05:27:28;22.73;;;16.13;;
4547;SDS011;2286;51.570;7.090;2022-10-31T05:29:55;22.27;;;18.77;;
4547;SDS011;2286;51.570;7.090;2022-10-31T05:32:22;21.43;;;18.50;;
4547;SDS011;2286;51.570;7.090;2022-10-31T05:34:49;23.60;;;17.20;;
4547;SDS011;2286;51.570;7.090;2022-10-31T05:37:15;22.53;;;18.57;;
4547;SDS011;2286;51.570;7.090;2022-10-31T05:39:42;24.87;;;18.17;;
4547;SDS011;2286;51.570;7.090;2022-10-31T05:42:09;21.97;;;17.63;;
4547;SDS011;2286;51.570;7.090;2022-10-31T05:44:37;25.40;;;19.90;;
4547;SDS011;2286;51.570;7.090;2022-10-31T05:47:04;23.40;;;19.03;;
4547;SDS011;2286;51.570;7.090;2022-10-31T05:49:31;23.97;;;18.73;;
4547;SDS011;2286;51.570;7.090;2022-10-31T05:51:58;22.10;;;19.17;;
4547;SDS011;2286;51.570;7.090;2022-10-31T05:54:25;24.63;;;19.93;;
4547;SDS011;2286;51.570;7.090;2022-10-31T05:56:52;26.47;;;19.80;;
4547;SDS011;2286;51.570;7.090;2022-10-31T05:59:19;29.60;;;20.13;;
4547;SDS011;2286;51.570;7.090;2022-10-31T06:01:47;26.37;;;20.20;;
4547;SDS011;2286;51.570;7.090;2022-10-31T06:04:14;25.60;;;17.90;;
4547;SDS011;2286;51.570;7.090;2022-10-31T06:06:41;26.97;;;19.37;;
4547;SDS011;2286;51.570;7.090;2022-10-31T06:09:07;24.27;;;18.80;;
4547;SDS011;2286;51.570;7.090;2022-10-31T06:11:34;26.83;;;19.33;;
4547;SDS011;2286;51.570;7.090;2022-10-31T06:14:01;21.83;;;19.40;;
4547;SDS011;2286;51.570;7.090;2022-10-31T06:16:28;25.87;;;19.97;;
4547;SDS011;2286;51.570;7.090;2022-10-31T06:18:56;26.10;;;19.20;;
4547;SDS011;2286;51.570;7.090;2022-10-31T06:21:23;26.17;;;19.17;;
4547;SDS011;2286;51.570;7.090;2022-10-31T06:23:50;22.47;;;17.60;;
4547;SDS011;2286;51.570;7.090;2022-10-31T06:26:17;22.83;;;19.17;;
4547;SDS011;2286;51.570;7.090;2022-10-31T06:28:44;27.03;;;20.57;;
4547;SDS011;2286;51.570;7.090;2022-10-31T06:31:11;23.77;;;20.50;;
4547;SDS011;2286;51.570;7.090;2022-10-31T06:33:38;24.37;;;19.13;;
4547;SDS011;2286;51.570;7.090;2022-10-31T06:36:08;25.50;;;20.03;;
4547;SDS011;2286;51.570;7.090;2022-10-31T06:38:35;24.23;;;19.50;;
4547;SDS011;2286;51.570;7.090;2022-10-31T06:41:02;24.83;;;19.83;;
4547;SDS011;2286;51.570;7.090;2022-10-31T06:43:29;28.97;;;20.33;;
4547;SDS011;2286;51.570;7.090;2022-10-31T06:45:56;26.97;;;20.50;;
4547;SDS011;2286;51.570;7.090;2022-10-31T06:48:23;24.73;;;20.17;;
4547;SDS011;2286;51.570;7.090;2022-10-31T06:50:50;27.13;;;19.60;;
4547;SDS011;2286;51.570;7.090;2022-10-31T06:53:18;20.97;;;18.77;;
4547;SDS011;2286;51.570;7.090;2022-10-31T06:55:45;24.77;;;20.50;;
4547;SDS011;2286;51.570;7.090;2022-10-31T06:58:12;28.00;;;19.60;;
4547;SDS011;2286;51.570;7.090;2022-10-31T07:00:39;22.50;;;18.83;;
4547;SDS011;2286;51.570;7.090;2022-10-31T07:03:06;24.93;;;20.37;;
4547;SDS011;2286;51.570;7.090;2022-10-31T07:05:36;21.30;;;19.10;;
4547;SDS011;2286;51.570;7.090;2022-10-31T07:08:03;20.90;;;18.70;;
4547;SDS011;2286;51.570;7.090;2022-10-31T07:10:34;26.33;;;20.77;;
4547;SDS011;2286;51.570;7.090;2022-10-31T07:13:02;24.10;;;20.23;;
4547;SDS011;2286;51.570;7.090;2022-10-31T07:15:32;28.00;;;19.30;;
4547;SDS011;2286;51.570;7.090;2022-10-31T07:18:01;24.83;;;20.43;;
4547;SDS011;2286;51.570;7.090;2022-10-31T07:20:28;26.60;;;19.70;;
4547;SDS011;2286;51.570;7.090;2022-10-31T07:22:55;23.37;;;20.40;;
4547;SDS011;2286;51.570;7.090;2022-10-31T07:25:22;29.50;;;22.97;;
4547;SDS011;2286;51.570;7.090;2022-10-31T07:27:51;26.70;;;20.23;;
4547;SDS011;2286;51.570;7.090;2022-10-31T07:30:18;27.83;;;21.60;;
4547;SDS011;2286;51.570;7.090;2022-10-31T07:32:46;24.27;;;19.63;;
4547;SDS011;2286;51.570;7.090;2022-10-31T07:35:15;32.87;;;23.13;;
4547;SDS011;2286;51.570;7.090;2022-10-31T07:37:43;31.40;;;20.90;;
4547;SDS011;2286;51.570;7.090;2022-10-31T07:40:10;30.40;;;21.93;;
4547;SDS011;2286;51.570;7.090;2022-10-31T07:42:37;30.93;;;22.60;;
4547;SDS011;2286;51.570;7.090;2022-10-31T07:45:07;26.40;;;21.57;;
4547;SDS011;2286;51.570;7.090;2022-10-31T07:47:38;29.30;;;23.20;;
4547;SDS011;2286;51.570;7.090;2022-10-31T07:50:05;32.90;;;21.90;;
4547;SDS011;2286;51.570;7.090;2022-10-31T07:52:33;25.83;;;21.63;;
4547;SDS011;2286;51.570;7.090;2022-10-31T07:54:59;22.53;;;20.23;;
4547;SDS011;2286;51.570;7.090;2022-10-31T07:57:26;28.63;;;21.77;;
4547;SDS011;2286;51.570;7.090;2022-10-31T07:59:53;24.83;;;22.20;;
4547;SDS011;2286;51.570;7.090;2022-10-31T08:02:21;30.67;;;21.60;;
4547;SDS011;2286;51.570;7.090;2022-10-31T08:04:48;28.80;;;21.83;;
4547;SDS011;2286;51.570;7.090;2022-10-31T08:07:16;30.73;;;23.30;;
4547;SDS011;2286;51.570;7.090;2022-10-31T08:09:43;29.47;;;25.60;;
4547;SDS011;2286;51.570;7.090;2022-10-31T08:12:10;27.13;;;22.17;;
4547;SDS011;2286;51.570;7.090;2022-10-31T08:14:37;26.37;;;23.57;;
4547;SDS011;2286;51.570;7.090;2022-10-31T08:17:03;31.87;;;24.30;;
4547;SDS011;2286;51.570;7.090;2022-10-31T08:19:32;30.00;;;21.90;;
4547;SDS011;2286;51.570;7.090;2022-10-31T08:21:58;27.60;;;22.17;;
4547;SDS011;2286;51.570;7.090;2022-10-31T08:24:25;27.40;;;21.73;;
4547;SDS011;2286;51.570;7.090;2022-10-31T08:26:52;28.27;;;21.27;;
4547;SDS011;2286;51.570;7.090;2022-10-31T08:29:19;25.70;;;20.33;;
4547;SDS011;2286;51.570;7.090;2022-10-31T08:31:46;25.53;;;19.83;;
4547;SDS011;2286;51.570;7.090;2022-10-31T08:34:13;21.77;;;19.50;;
4547;SDS011;2286;51.570;7.090;2022-10-31T08:36:41;20.90;;;18.70;;
4547;SDS011;2286;51.570;7.090;2022-10-31T08:39:09;23.63;;;18.53;;
4547;SDS011;2286;51.570;7.090;2022-10-31T08:41:36;21.67;;;18.77;;
4547;SDS011;2286;51.570;7.090;2022-10-31T08:44:03;22.23;;;18.20;;
4547;SDS011;2286;51.570;7.090;2022-10-31T08:46:30;20.30;;;18.13;;
4547;SDS011;2286;51.570;7.090;2022-10-31T08:48:57;23.90;;;20.40;;
4547;SDS011;2286;51.570;7.090;2022-10-31T08:51:24;24.87;;;18.40;;
4547;SDS011;2286;51.570;7.090;2022-10-31T08:53:52;21.00;;;18.63;;
4547;SDS011;2286;51.570;7.090;2022-10-31T08:56:19;24.80;;;18.97;;
4547;SDS011;2286;51.570;7.090;2022-10-31T08:58:47;24.90;;;17.60;;
4547;SDS011;2286;51.570;7.090;2022-10-31T09:01:14;26.27;;;19.43;;
4547;SDS011;2286;51.570;7.090;2022-10-31T09:03:41;23.70;;;18.20;;
4547;SDS011;2286;51.570;7.090;2022-10-31T09:06:08;22.67;;;18.90;;
4547;SDS011;2286;51.570;7.090;2022-10-31T09:08:35;21.17;;;17.47;;
4547;SDS011;2286;51.570;7.090;2022-10-31T09:11:03;21.20;;;17.77;;
4547;SDS011;2286;51.570;7.090;2022-10-31T09:13:31;26.23;;;19.07;;
4547;SDS011;2286;51.570;7.090;2022-10-31T09:15:58;25.73;;;17.40;;
4547;SDS011;2286;51.570;7.090;2022-10-31T09:18:25;18.97;;;16.87;;
4547;SDS011;2286;51.570;7.090;2022-10-31T09:20:53;22.90;;;17.17;;
4547;SDS011;2286;51.570;7.090;2022-10-31T09:23:23;23.53;;;16.90;;
4547;SDS011;2286;51.570;7.090;2022-10-31T09:25:51;24.43;;;16.00;;
4547;SDS011;2286;51.570;7.090;2022-10-31T09:28:21;25.87;;;16.10;;
4547;SDS011;2286;51.570;7.090;2022-10-31T09:30:51;25.73;;;15.83;;
4547;SDS011;2286;51.570;7.090;2022-10-31T09:33:19;22.50;;;15.20;;
4547;SDS011;2286;51.570;7.090;2022-10-31T09:35:47;21.73;;;14.50;;
4547;SDS011;2286;51.570;7.090;2022-10-31T09:38:15;20.07;;;15.67;;
4547;SDS011;2286;51.570;7.090;2022-10-31T09:40:44;18.30;;;15.40;;
4547;SDS011;2286;51.570;7.090;2022-10-31T09:43:14;16.20;;;14.50;;
4547;SDS011;2286;51.570;7.090;2022-10-31T09:45:50;18.47;;;14.13;;
4547;SDS011;2286;51.570;7.090;2022-10-31T09:48:28;19.43;;;14.67;;
4547;SDS011;2286;51.570;7.090;2022-10-31T09:51:18;17.80;;;13.80;;
4547;SDS011;2286;51.570;7.090;2022-10-31T09:53:49;16.93;;;14.30;;
4547;SDS011;2286;51.570;7.090;2022-10-31T09:56:20;18.90;;;13.80;;
4547;SDS011;2286;51.570;7.090;2022-10-31T09:58:50;20.60;;;14.97;;
4547;SDS011;2286;51.570;7.090;2022-10-31T10:01:28;24.60;;;15.40;;
4547;SDS011;2286;51.570;7.090;2022-10-31T10:04:01;21.00;;;15.20;;
4547;SDS011;2286;51.570;7.090;2022-10-31T10:06:36;22.17;;;15.73;;
4547;SDS011;2286;51.570;7.090;2022-10-31T10:09:08;20.90;;;16.73;;
4547;SDS011;2286;51.570;7.090;2022-10-31T10:11:41;24.43;;;17.20;;
4547;SDS011;2286;51.570;7.090;2022-10-31T10:14:20;35.00;;;16.90;;
4547;SDS011;2286;51.570;7.090;2022-10-31T10:17:04;26.97;;;17.67;;
4547;SDS011;2286;51.570;7.090;2022-10-31T10:19:43;23.20;;;16.93;;
4547;SDS011;2286;51.570;7.090;2022-10-31T10:22:28;21.87;;;16.93;;
4547;SDS011;2286;51.570;7.090;2022-10-31T10:25:07;26.30;;;16.77;;
4547;SDS011;2286;51.570;7.090;2022-10-31T10:27:53;23.80;;;15.83;;
4547;SDS011;2286;51.570;7.090;2022-10-31T10:30:30;23.67;;;14.87;;
4547;SDS011;2286;51.570;7.090;2022-10-31T10:33:04;24.83;;;16.70;;
4547;SDS011;2286;51.570;7.090;2022-10-31T10:35:36;21.00;;;15.77;;
4547;SDS011;2286;51.570;7.090;2022-10-31T10:38:10;24.50;;;15.70;;
4547;SDS011;2286;51.570;7.090;2022-10-31T10:40:41;27.27;;;15.83;;
4547;SDS011;2286;51.570;7.090;2022-10-31T10:43:17;26.23;;;15.87;;
4547;SDS011;2286;51.570;7.090;2022-10-31T10:45:48;18.80;;;15.90;;
4547;SDS011;2286;51.570;7.090;2022-10-31T10:48:41;23.73;;;14.53;;
4547;SDS011;2286;51.570;7.090;2022-10-31T10:51:18;23.70;;;16.37;;
4547;SDS011;2286;51.570;7.090;2022-10-31T10:54:00;20.40;;;13.60;;
4547;SDS011;2286;51.570;7.090;2022-10-31T10:56:47;24.50;;;16.57;;
4547;SDS011;2286;51.570;7.090;2022-10-31T10:59:22;23.50;;;15.30;;
4547;SDS011;2286;51.570;7.090;2022-10-31T11:01:50;26.63;;;15.97;;
4547;SDS011;2286;51.570;7.090;2022-10-31T11:07:03;21.80;;;15.97;;
4547;SDS011;2286;51.570;7.090;2022-10-31T11:09:31;19.50;;;15.20;;
4547;SDS011;2286;51.570;7.090;2022-10-31T11:11:59;21.40;;;14.80;;
4547;SDS011;2286;51.570;7.090;2022-10-31T11:14:33;25.40;;;16.87;;
4547;SDS011;2286;51.570;7.090;2022-10-31T11:17:09;22.77;;;16.47;;
4547;SDS011;2286;51.570;7.090;2022-10-31T11:19:43;34.03;;;17.10;;
4547;SDS011;2286;51.570;7.090;2022-10-31T11:22:13;25.53;;;16.27;;
4547;SDS011;2286;51.570;7.090;2022-10-31T11:24:43;22.80;;;15.63;;
4547;SDS011;2286;51.570;7.090;2022-10-31T11:27:14;23.83;;;17.03;;
4547;SDS011;2286;51.570;7.090;2022-10-31T11:29:42;24.80;;;16.37;;
4547;SDS011;2286;51.570;7.090;2022-10-31T11:32:15;28.20;;;16.83;;
4547;SDS011;2286;51.570;7.090;2022-10-31T11:34:47;22.53;;;16.40;;
4547;SDS011;2286;51.570;7.090;2022-10-31T11:37:18;23.90;;;16.30;;
4547;SDS011;2286;51.570;7.090;2022-10-31T11:39:48;25.30;;;17.47;;
4547;SDS011;2286;51.570;7.090;2022-10-31T11:42:19;21.53;;;16.23;;
4547;SDS011;2286;51.570;7.090;2022-10-31T11:44:48;26.27;;;17.23;;
4547;SDS011;2286;51.570;7.090;2022-10-31T11:47:17;23.20;;;16.33;;
4547;SDS011;2286;51.570;7.090;2022-10-31T11:49:51;26.37;;;16.00;;
4547;SDS011;2286;51.570;7.090;2022-10-31T11:52:19;23.10;;;15.30;;
4547;SDS011;2286;51.570;7.090;2022-10-31T11:54:49;23.10;;;16.37;;
4547;SDS011;2286;51.570;7.090;2022-10-31T11:57:26;21.83;;;16.60;;
4547;SDS011;2286;51.570;7.090;2022-10-31T11:59:55;21.23;;;16.17;;
4547;SDS011;2286;51.570;7.090;2022-10-31T12:02:23;19.00;;;15.47;;
4547;SDS011;2286;51.570;7.090;2022-10-31T12:04:54;26.70;;;16.50;;
4547;SDS011;2286;51.570;7.090;2022-10-31T12:07:29;22.13;;;15.97;;
4547;SDS011;2286;51.570;7.090;2022-10-31T12:09:56;27.93;;;15.63;;
4547;SDS011;2286;51.570;7.090;2022-10-31T12:12:30;24.43;;;15.17;;
4547;SDS011;2286;51.570;7.090;2022-10-31T12:15:16;23.93;;;15.20;;
4547;SDS011;2286;51.570;7.090;2022-10-31T12:17:57;27.33;;;15.07;;
4547;SDS011;2286;51.570;7.090;2022-10-31T12:20:40;27.10;;;16.90;;
4547;SDS011;2286;51.570;7.090;2022-10-31T12:23:18;29.03;;;15.93;;
4547;SDS011;2286;51.570;7.090;2022-10-31T12:25:53;17.97;;;14.40;;
4547;SDS011;2286;51.570;7.090;2022-10-31T12:28:39;18.50;;;13.57;;
4547;SDS011;2286;51.570;7.090;2022-10-31T12:31:19;22.50;;;15.10;;
4547;SDS011;2286;51.570;7.090;2022-10-31T12:34:00;20.07;;;14.73;;
4547;SDS011;2286;51.570;7.090;2022-10-31T12:36:48;18.30;;;13.73;;
4547;SDS011;2286;51.570;7.090;2022-10-31T12:39:25;22.47;;;13.77;;
4547;SDS011;2286;51.570;7.090;2022-10-31T12:42:01;20.20;;;13.43;;
4547;SDS011;2286;51.570;7.090;2022-10-31T12:47:45;18.53;;;14.37;;
4547;SDS011;2286;51.570;7.090;2022-10-31T12:50:35;23.50;;;15.03;;
4547;SDS011;2286;51.570;7.090;2022-10-31T12:53:18;19.57;;;15.40;;
4547;SDS011;2286;51.570;7.090;2022-10-31T12:55:55;27.10;;;15.10;;
4547;SDS011;2286;51.570;7.090;2022-10-31T12:58:33;24.67;;;13.97;;
4547;SDS011;2286;51.570;7.090;2022-10-31T13:01:06;17.03;;;13.20;;
4547;SDS011;2286;51.570;7.090;2022-10-31T13:03:37;23.20;;;13.17;;
4547;SDS011;2286;51.570;7.090;2022-10-31T13:06:13;19.03;;;12.80;;
4547;SDS011;2286;51.570;7.090;2022-10-31T13:08:47;18.77;;;13.57;;
4547;SDS011;2286;51.570;7.090;2022-10-31T13:11:19;19.63;;;12.90;;
4547;SDS011;2286;51.570;7.090;2022-10-31T13:13:53;19.20;;;12.87;;
4547;SDS011;2286;51.570;7.090;2022-10-31T13:16:25;18.03;;;13.90;;
4547;SDS011;2286;51.570;7.090;2022-10-31T13:18:57;23.27;;;13.17;;
4547;SDS011;2286;51.570;7.090;2022-10-31T13:21:29;19.57;;;11.70;;
4547;SDS011;2286;51.570;7.090;2022-10-31T13:24:02;22.00;;;13.20;;
4547;SDS011;2286;51.570;7.090;2022-10-31T13:26:35;19.67;;;13.07;;
4547;SDS011;2286;51.570;7.090;2022-10-31T13:29:06;20.13;;;12.93;;
4547;SDS011;2286;51.570;7.090;2022-10-31T13:31:40;17.10;;;13.40;;
4547;SDS011;2286;51.570;7.090;2022-10-31T13:34:09;20.83;;;12.17;;
4547;SDS011;2286;51.570;7.090;2022-10-31T13:36:45;14.27;;;11.40;;
4547;SDS011;2286;51.570;7.090;2022-10-31T13:39:23;16.17;;;12.03;;
4547;SDS011;2286;51.570;7.090;2022-10-31T13:41:59;15.97;;;11.77;;
4547;SDS011;2286;51.570;7.090;2022-10-31T13:44:32;17.60;;;12.00;;
4547;SDS011;2286;51.570;7.090;2022-10-31T13:47:03;16.83;;;12.73;;
4547;SDS011;2286;51.570;7.090;2022-10-31T13:49:50;15.70;;;10.77;;
4547;SDS011;2286;51.570;7.090;2022-10-31T13:52:22;17.27;;;12.10;;
4547;SDS011;2286;51.570;7.090;2022-10-31T13:54:52;17.87;;;11.80;;
4547;SDS011;2286;51.570;7.090;2022-10-31T13:57:26;19.43;;;10.97;;
4547;SDS011;2286;51.570;7.090;2022-10-31T14:00:00;16.63;;;11.80;;
4547;SDS011;2286;51.570;7.090;2022-10-31T14:02:30;15.50;;;11.47;;
4547;SDS011;2286;51.570;7.090;2022-10-31T14:04:59;16.13;;;11.77;;
4547;SDS011;2286;51.570;7.090;2022-10-31T14:07:29;15.73;;;11.83;;
4547;SDS011;2286;51.570;7.090;2022-10-31T14:09:59;17.07;;;11.97;;
4547;SDS011;2286;51.570;7.090;2022-10-31T14:12:30;15.23;;;9.73;;
4547;SDS011;2286;51.570;7.090;2022-10-31T14:15:03;16.43;;;11.67;;
4547;SDS011;2286;51.570;7.090;2022-10-31T14:17:38;19.27;;;11.40;;
4547;SDS011;2286;51.570;7.090;2022-10-31T14:20:24;17.80;;;11.53;;
4547;SDS011;2286;51.570;7.090;2022-10-31T14:23:13;18.07;;;11.40;;
4547;SDS011;2286;51.570;7.090;2022-10-31T14:26:30;20.70;;;13.80;;
4547;SDS011;2286;51.570;7.090;2022-10-31T14:28:59;20.50;;;11.90;;
4547;SDS011;2286;51.570;7.090;2022-10-31T14:31:29;17.70;;;11.03;;
4547;SDS011;2286;51.570;7.090;2022-10-31T14:34:00;18.30;;;11.20;;
4547;SDS011;2286;51.570;7.090;2022-10-31T14:36:32;17.90;;;12.23;;
4547;SDS011;2286;51.570;7.090;2022-10-31T14:39:10;18.20;;;12.10;;
4547;SDS011;2286;51.570;7.090;2022-10-31T14:41:53;17.80;;;11.20;;
4547;SDS011;2286;51.570;7.090;2022-10-31T14:47:35;14.50;;;11.40;;
4547;SDS011;2286;51.570;7.090;2022-10-31T14:50:17;21.87;;;12.07;;
4547;SDS011;2286;51.570;7.090;2022-10-31T14:52:49;18.10;;;11.50;;
4547;SDS011;2286;51.570;7.090;2022-10-31T14:55:19;26.90;;;12.33;;
4547;SDS011;2286;51.570;7.090;2022-10-31T14:57:49;21.97;;;14.50;;
4547;SDS011;2286;51.570;7.090;2022-10-31T15:00:19;16.30;;;11.73;;
4547;SDS011;2286;51.570;7.090;2022-10-31T15:02:49;17.63;;;11.70;;
4547;SDS011;2286;51.570;7.090;2022-10-31T15:05:25;20.90;;;13.40;;
4547;SDS011;2286;51.570;7.090;2022-10-31T15:07:54;22.53;;;13.43;;
4547;SDS011;2286;51.570;7.090;2022-10-31T15:10:22;18.53;;;12.30;;
4547;SDS011;2286;51.570;7.090;2022-10-31T15:12:52;20.20;;;13.03;;
4547;SDS011;2286;51.570;7.090;2022-10-31T15:15:20;19.50;;;11.97;;
4547;SDS011;2286;51.570;7.090;2022-10-31T15:17:49;13.73;;;11.50;;